Time;durP1;ratioP1;P1;durP2;ratioP2;P2;SDS_P1;SDS_P2;PMS_P1;PMS_P2;Temp;Humidity;BMP_temperature;BMP_pressure;BME280_temperature;BME280_humidity;BME280_pressure;Samples;Min_cycle;Max_cycle;Signal;HPM_P1;HPM_P2
2023/04/08 00:01:57;;;;;;;84.43;14.13;;;9.40;99.90;;;;;;5018710;28;20405;-83
2023/04/08 00:04:22;;;;;;;82.60;15.43;;;9.40;99.90;;;;;;5016965;28;20425;-83
2023/04/08 00:06:48;;;;;;;92.10;15.30;;;9.40;99.90;;;;;;5095660;23;20224;-77
2023/04/08 00:09:14;;;;;;;88.00;15.30;;;9.40;99.90;;;;;;5031385;28;20165;-76
2023/04/08 00:11:40;;;;;;;90.70;14.67;;;9.40;99.90;;;;;;5033236;28;20238;-77
2023/04/08 00:14:06;;;;;;;87.65;14.85;;;9.40;99.90;;;;;;5033761;28;20251;-77
2023/04/08 00:16:32;;;;;;;80.97;13.70;;;9.40;99.90;;;;;;5033475;28;20169;-77
2023/04/08 00:18:58;;;;;;;89.32;13.80;;;9.40;99.90;;;;;;5033277;28;20218;-77
2023/04/08 00:21:24;;;;;;;83.13;13.30;;;9.50;99.90;;;;;;5033260;28;20169;-77
2023/04/08 00:23:49;;;;;;;85.93;12.05;;;9.50;99.90;;;;;;5033109;28;20187;-76
2023/04/08 00:26:15;;;;;;;81.93;15.00;;;9.50;99.90;;;;;;5033159;28;20243;-76
2023/04/08 00:28:41;;;;;;;86.90;14.87;;;9.40;99.90;;;;;;5033640;28;20170;-77
2023/04/08 00:31:08;;;;;;;75.57;14.05;;;9.50;99.90;;;;;;5032306;28;20593;-76
2023/04/08 00:33:33;;;;;;;93.00;12.43;;;9.40;99.90;;;;;;5033190;28;20181;-76
2023/04/08 00:35:59;;;;;;;78.90;14.60;;;9.40;99.90;;;;;;5033085;28;20502;-76
2023/04/08 00:38:25;;;;;;;80.67;13.27;;;9.50;99.90;;;;;;5033045;28;20165;-77
2023/04/08 00:40:51;;;;;;;82.07;14.20;;;9.50;99.90;;;;;;5033016;28;20264;-77
2023/04/08 00:43:19;;;;;;;85.93;14.23;;;9.50;99.90;;;;;;5032904;28;20241;-76
2023/04/08 00:45:45;;;;;;;79.90;14.45;;;9.50;99.90;;;;;;5032886;28;20256;-77
2023/04/08 00:48:11;;;;;;;86.57;15.60;;;9.50;99.90;;;;;;5032933;28;20192;-76
2023/04/08 00:50:37;;;;;;;82.93;13.30;;;9.50;99.90;;;;;;5032823;28;20193;-76
2023/04/08 00:53:02;;;;;;;79.70;13.27;;;9.50;99.90;;;;;;5031697;28;20424;-76
2023/04/08 00:55:28;;;;;;;81.23;13.53;;;9.40;99.90;;;;;;5033177;28;20629;-77
2023/04/08 00:57:56;;;;;;;79.23;13.90;;;9.50;99.90;;;;;;5032894;28;20161;-77
2023/04/08 01:00:21;;;;;;;86.72;15.85;;;9.40;99.90;;;;;;5033038;28;20248;-77
2023/04/08 01:03:00;;;;;;;87.17;16.00;;;9.40;99.90;;;;;;5032789;28;20232;-77
2023/04/08 01:05:45;;;;;;;82.32;14.30;;;9.40;99.90;;;;;;5033202;28;20919;-76
2023/04/08 01:08:11;;;;;;;81.65;15.60;;;9.40;99.90;;;;;;5031530;28;20669;-77
2023/04/08 01:10:41;;;;;;;80.40;15.32;;;9.40;99.90;;;;;;5032620;28;20231;-76
2023/04/08 01:13:13;;;;;;;98.47;18.27;;;9.40;99.90;;;;;;5031439;28;20319;-77
2023/04/08 01:15:41;;;;;;;80.25;15.23;;;9.40;99.90;;;;;;5032671;28;20166;-77
2023/04/08 01:18:11;;;;;;;79.93;13.80;;;9.40;99.90;;;;;;5032574;28;20182;-77
2023/04/08 01:20:39;;;;;;;84.18;15.00;;;9.40;99.90;;;;;;5035810;28;20687;-76
2023/04/08 01:23:26;;;;;;;90.22;14.82;;;9.40;99.90;;;;;;5103670;22;20275;-77
2023/04/08 01:25:53;;;;;;;79.60;15.13;;;9.30;99.90;;;;;;5016402;28;20169;-76
2023/04/08 01:28:22;;;;;;;86.00;16.08;;;9.30;99.90;;;;;;5016654;28;20625;-76
2023/04/08 01:30:48;;;;;;;91.20;14.55;;;9.30;99.90;;;;;;5016259;28;20273;-77
2023/04/08 01:33:16;;;;;;;85.13;15.35;;;9.30;99.90;;;;;;5016521;28;20285;-76
2023/04/08 01:35:42;;;;;;;87.88;14.63;;;9.40;99.90;;;;;;5016284;28;20170;-77
2023/04/08 01:38:12;;;;;;;84.45;15.27;;;9.40;99.90;;;;;;5016496;28;20700;-76
2023/04/08 01:40:39;;;;;;;88.50;16.20;;;9.40;99.90;;;;;;5016490;28;20154;-77
2023/04/08 01:43:08;;;;;;;84.47;14.50;;;9.40;99.90;;;;;;5016022;28;20189;-77
2023/04/08 01:45:34;;;;;;;93.10;17.33;;;9.30;99.90;;;;;;5016093;28;20158;-76
2023/04/08 01:48:01;;;;;;;82.70;16.80;;;9.30;99.90;;;;;;5016355;28;20703;-77
2023/04/08 01:50:27;;;;;;;89.07;16.80;;;9.30;99.90;;;;;;5016153;28;20490;-76
2023/04/08 01:52:54;;;;;;;92.40;16.20;;;9.30;99.90;;;;;;5016027;28;20182;-77
2023/04/08 01:55:21;;;;;;;84.40;17.15;;;9.40;99.90;;;;;;5015893;28;20166;-76
2023/04/08 01:57:51;;;;;;;86.35;16.83;;;9.30;99.90;;;;;;5015865;28;20276;-77
2023/04/08 02:00:26;;;;;;;88.60;16.55;;;9.30;99.90;;;;;;5016146;28;20154;-77
2023/04/08 02:02:53;;;;;;;86.57;19.00;;;9.30;99.90;;;;;;5015826;28;20185;-76
2023/04/08 02:05:19;;;;;;;92.70;16.60;;;9.40;99.90;;;;;;5016013;28;20172;-77
2023/04/08 02:07:47;;;;;;;86.72;16.88;;;9.40;99.90;;;;;;5015621;28;20185;-76
2023/04/08 02:10:12;;;;;;;87.82;16.92;;;9.30;99.90;;;;;;5015542;28;20262;-76
2023/04/08 02:12:38;;;;;;;89.67;17.23;;;9.30;99.90;;;;;;5015628;28;20606;-77
2023/04/08 02:15:05;;;;;;;92.87;17.93;;;9.30;99.90;;;;;;5015485;28;20205;-77
2023/04/08 02:17:37;;;;;;;89.72;18.77;;;9.30;99.90;;;;;;5015485;28;20409;-77
2023/04/08 02:20:08;;;;;;;92.90;18.17;;;9.30;99.90;;;;;;5014258;28;20177;-77
2023/04/08 02:23:02;;;;;;;99.85;17.80;;;9.30;99.90;;;;;;5015334;28;20169;-76
2023/04/08 02:30:33;;;;;;;88.45;17.63;;;9.20;99.90;;;;;;4994275;28;20225;-76
2023/04/08 02:33:02;;;;;;;87.20;18.77;;;9.20;99.90;;;;;;4994916;28;20182;-76
2023/04/08 02:35:28;;;;;;;87.32;17.60;;;9.30;99.90;;;;;;4995552;28;20155;-76
2023/04/08 02:37:54;;;;;;;92.20;18.77;;;9.30;99.90;;;;;;4995532;28;20648;-76
2023/04/08 02:40:31;;;;;;;87.30;17.80;;;9.30;99.90;;;;;;4995460;28;20656;-76
2023/04/08 02:42:57;;;;;;;89.22;19.10;;;9.30;99.90;;;;;;4995734;28;20194;-76
2023/04/08 02:45:31;;;;;;;89.90;16.85;;;9.30;99.90;;;;;;4995369;28;20163;-76
2023/04/08 02:47:59;;;;;;;90.85;18.23;;;9.30;99.90;;;;;;4995363;28;20151;-76
2023/04/08 02:50:24;;;;;;;91.05;18.73;;;9.30;99.90;;;;;;4995736;28;20190;-76
2023/04/08 02:52:50;;;;;;;87.50;19.80;;;9.30;99.90;;;;;;4995211;28;20524;-76
2023/04/08 02:55:16;;;;;;;87.30;19.13;;;9.20;99.90;;;;;;4995148;28;20249;-76
2023/04/08 02:57:42;;;;;;;86.37;19.27;;;9.20;99.90;;;;;;4995406;28;20515;-76
2023/04/08 03:00:08;;;;;;;91.80;18.57;;;9.20;99.90;;;;;;4995343;28;20402;-76
2023/04/08 03:02:34;;;;;;;93.63;17.58;;;9.20;99.90;;;;;;4995265;28;20417;-76
2023/04/08 03:05:01;;;;;;;94.85;17.77;;;9.20;99.90;;;;;;4995161;28;20190;-76
2023/04/08 03:07:27;;;;;;;88.43;18.70;;;9.20;99.90;;;;;;4993607;28;20190;-76
2023/04/08 03:09:54;;;;;;;92.47;19.30;;;9.20;99.90;;;;;;4994781;28;20263;-76
2023/04/08 03:12:20;;;;;;;89.82;19.75;;;9.20;99.90;;;;;;4995377;28;20649;-76
2023/04/08 03:14:46;;;;;;;89.88;18.65;;;9.20;99.90;;;;;;4994654;28;20191;-76
2023/04/08 03:17:12;;;;;;;88.70;18.10;;;9.20;99.90;;;;;;4994705;28;20169;-76
2023/04/08 03:19:37;;;;;;;93.30;19.00;;;9.20;99.90;;;;;;4993400;28;20659;-76
2023/04/08 03:22:03;;;;;;;96.40;19.70;;;9.20;99.90;;;;;;4994782;28;20249;-76
2023/04/08 03:24:29;;;;;;;93.37;19.00;;;9.20;99.90;;;;;;4994572;28;20602;-76
2023/04/08 03:26:54;;;;;;;95.47;20.33;;;9.20;99.90;;;;;;4994920;28;20163;-78
2023/04/08 03:29:20;;;;;;;98.77;21.30;;;9.20;99.90;;;;;;4995901;28;20303;-78
2023/04/08 03:31:45;;;;;;;89.37;19.03;;;9.20;99.90;;;;;;4994542;28;20194;-76
2023/04/08 03:34:11;;;;;;;90.47;19.67;;;9.30;99.90;;;;;;4994463;28;20709;-78
2023/04/08 03:36:37;;;;;;;92.75;20.55;;;9.30;99.90;;;;;;4995920;28;20206;-78
2023/04/08 03:39:03;;;;;;;90.63;19.03;;;9.20;99.90;;;;;;4994660;28;20249;-78
2023/04/08 03:41:29;;;;;;;94.13;20.20;;;9.20;99.90;;;;;;4994763;28;20170;-76
2023/04/08 03:43:55;;;;;;;90.30;18.92;;;9.20;99.90;;;;;;4993343;28;20689;-76
2023/04/08 03:46:21;;;;;;;91.77;20.27;;;9.20;99.90;;;;;;4994576;28;20194;-78
2023/04/08 03:48:47;;;;;;;96.60;22.00;;;9.20;99.90;;;;;;4994034;28;20642;-76
2023/04/08 03:51:13;;;;;;;104.97;22.00;;;9.10;99.90;;;;;;4994130;28;20562;-78
2023/04/08 03:53:38;;;;;;;96.93;20.73;;;9.10;99.90;;;;;;4995806;28;20185;-78
2023/04/08 03:56:05;;;;;;;95.23;22.50;;;9.10;99.90;;;;;;4994506;28;20170;-78
2023/04/08 03:58:30;;;;;;;93.22;20.92;;;9.10;99.90;;;;;;4995679;28;20662;-76
2023/04/08 04:00:56;;;;;;;96.10;20.97;;;9.10;99.90;;;;;;4994172;28;20183;-78
2023/04/08 04:03:28;;;;;;;95.57;21.90;;;9.10;99.90;;;;;;4994278;28;21013;-76
2023/04/08 04:05:54;;;;;;;98.68;21.38;;;9.20;99.90;;;;;;4993849;28;20414;-76
2023/04/08 04:08:19;;;;;;;101.87;21.97;;;9.20;99.90;;;;;;4994199;28;20587;-78
2023/04/08 04:10:45;;;;;;;95.53;21.63;;;9.20;99.90;;;;;;4995002;28;20198;-78
2023/04/08 04:13:11;;;;;;;99.07;21.47;;;9.20;99.90;;;;;;4994484;28;20674;-77
2023/04/08 04:15:45;;;;;;;93.10;21.57;;;9.10;99.90;;;;;;4994304;28;20249;-76
2023/04/08 04:18:14;;;;;;;100.15;21.75;;;9.10;99.90;;;;;;4994115;28;20547;-76
2023/04/08 04:20:41;;;;;;;101.05;22.42;;;9.10;99.90;;;;;;4993804;28;20162;-78
2023/04/08 04:23:17;;;;;;;102.50;23.20;;;9.10;99.90;;;;;;4993023;28;20285;-76
2023/04/08 04:25:45;;;;;;;95.88;21.33;;;9.10;99.90;;;;;;4994042;28;20643;-78
2023/04/08 04:28:11;;;;;;;94.45;22.23;;;9.10;99.90;;;;;;4995182;28;20174;-78
2023/04/08 04:30:40;;;;;;;100.20;21.80;;;9.10;99.90;;;;;;4993199;28;20201;-78
2023/04/08 04:33:06;;;;;;;101.90;22.70;;;9.10;99.90;;;;;;4995690;28;20193;-78
2023/04/08 04:35:32;;;;;;;96.33;22.97;;;9.10;99.90;;;;;;4993979;28;20162;-76
2023/04/08 04:37:58;;;;;;;94.15;20.10;;;9.10;99.90;;;;;;4993602;28;20444;-76
2023/04/08 04:40:23;;;;;;;101.80;24.83;;;9.10;99.90;;;;;;4993612;28;20163;-76
2023/04/08 04:42:49;;;;;;;100.40;22.93;;;9.10;99.90;;;;;;4993598;28;20269;-76
2023/04/08 04:45:15;;;;;;;101.73;24.07;;;9.10;99.90;;;;;;4993597;28;20601;-76
2023/04/08 04:47:41;;;;;;;112.00;23.43;;;9.10;99.90;;;;;;4993564;28;20167;-76
2023/04/08 04:50:07;;;;;;;105.00;23.70;;;9.00;99.90;;;;;;4993631;28;20507;-78
2023/04/08 04:52:35;;;;;;;103.80;22.60;;;9.10;99.90;;;;;;4995092;28;20163;-78
2023/04/08 04:55:00;;;;;;;104.05;23.48;;;9.00;99.90;;;;;;4995590;28;20244;-77
2023/04/08 04:57:26;;;;;;;103.47;21.97;;;9.10;99.90;;;;;;4998047;28;20174;-76
2023/04/08 04:59:52;;;;;;;98.57;22.77;;;9.10;99.90;;;;;;4997366;28;20720;-77
2023/04/08 05:02:17;;;;;;;100.00;24.13;;;9.10;99.90;;;;;;4999305;28;20170;-78
2023/04/08 05:04:43;;;;;;;101.50;23.00;;;9.10;99.90;;;;;;4997856;28;20654;-76
2023/04/08 05:07:09;;;;;;;98.10;22.80;;;9.10;99.90;;;;;;4997132;28;20250;-76
2023/04/08 05:09:34;;;;;;;98.97;23.63;;;9.10;99.90;;;;;;4996977;28;20163;-76
2023/04/08 05:12:00;;;;;;;101.30;22.77;;;9.10;99.90;;;;;;4997025;28;20166;-76
2023/04/08 05:14:29;;;;;;;92.60;20.23;;;9.10;99.90;;;;;;4996951;28;20210;-76
2023/04/08 05:16:55;;;;;;;104.38;22.77;;;9.10;99.90;;;;;;4997048;28;20205;-78
2023/04/08 05:19:20;;;;;;;106.60;25.05;;;9.10;99.90;;;;;;4998508;28;20167;-76
2023/04/08 05:21:46;;;;;;;106.50;23.27;;;9.10;99.90;;;;;;4996875;28;20546;-76
2023/04/08 05:24:12;;;;;;;102.30;22.90;;;9.10;99.90;;;;;;4996803;28;20729;-76
2023/04/08 05:26:37;;;;;;;95.50;21.30;;;9.10;99.90;;;;;;4996778;28;20642;-76
2023/04/08 05:29:03;;;;;;;107.90;23.27;;;9.10;99.90;;;;;;4996710;28;20186;-76
2023/04/08 05:33:56;;;;;;;108.82;21.70;;;9.20;99.90;;;;;;5015991;28;20589;-76
2023/04/08 05:36:22;;;;;;;106.03;23.03;;;9.20;99.90;;;;;;5016221;28;20160;-76
2023/04/08 05:38:48;;;;;;;108.93;22.97;;;9.20;99.90;;;;;;5016368;28;20162;-76
2023/04/08 05:41:13;;;;;;;99.30;22.70;;;9.30;99.90;;;;;;5016163;28;20166;-76
2023/04/08 05:43:39;;;;;;;100.40;24.17;;;9.20;99.90;;;;;;5016289;28;20197;-76
2023/04/08 05:46:06;;;;;;;109.87;23.90;;;9.30;99.90;;;;;;5016028;28;20170;-76
2023/04/08 05:48:32;;;;;;;103.85;24.40;;;9.20;99.90;;;;;;5015950;28;20253;-76
2023/04/08 05:50:58;;;;;;;106.57;24.20;;;9.20;99.90;;;;;;5016457;28;20317;-76
2023/04/08 05:53:24;;;;;;;106.67;23.87;;;9.30;99.90;;;;;;5015807;28;20428;-76
2023/04/08 05:55:50;;;;;;;104.40;22.47;;;9.30;99.90;;;;;;5015840;28;20162;-76
2023/04/08 05:58:16;;;;;;;100.87;23.47;;;9.30;99.90;;;;;;5014799;28;20416;-78
2023/04/08 06:00:41;;;;;;;100.80;23.60;;;9.30;99.90;;;;;;5016969;28;20450;-78
2023/04/08 06:03:07;;;;;;;105.23;24.03;;;9.30;99.90;;;;;;5017438;28;20516;-78
2023/04/08 06:05:33;;;;;;;96.70;22.63;;;9.40;99.90;;;;;;5017576;28;20166;-78
2023/04/08 06:07:59;;;;;;;104.77;23.93;;;9.40;99.90;;;;;;5082426;22;20307;-83
2023/04/08 06:10:25;;;;;;;110.70;23.48;;;9.40;99.90;;;;;;5016631;28;20202;-83
2023/04/08 06:12:51;;;;;;;99.33;22.30;;;9.40;99.90;;;;;;5016817;28;20190;-83
2023/04/08 06:15:20;;;;;;;104.13;22.10;;;9.40;99.90;;;;;;5018059;28;20632;-84
2023/04/08 06:17:46;;;;;;;106.43;21.88;;;9.40;99.90;;;;;;5016807;28;20174;-85
2023/04/08 06:20:11;;;;;;;105.67;24.20;;;9.30;99.90;;;;;;5018049;28;20201;-85
2023/04/08 06:22:37;;;;;;;103.27;23.23;;;9.30;99.90;;;;;;5018321;28;20170;-84
2023/04/08 06:25:03;;;;;;;103.30;22.13;;;9.40;99.90;;;;;;5016715;28;20220;-84
2023/04/08 06:27:30;;;;;;;102.13;24.00;;;9.40;99.90;;;;;;5015973;28;20173;-84
2023/04/08 06:29:56;;;;;;;103.03;24.10;;;9.40;99.90;;;;;;5016283;28;20193;-84
2023/04/08 06:32:25;;;;;;;102.35;23.10;;;9.40;99.90;;;;;;5017875;28;20216;-84
2023/04/08 06:34:53;;;;;;;102.30;23.70;;;9.40;99.90;;;;;;5017276;28;20692;-84
2023/04/08 06:37:19;;;;;;;103.28;24.00;;;9.40;99.90;;;;;;5017267;28;20170;-83
2023/04/08 06:39:45;;;;;;;109.72;25.25;;;9.40;99.90;;;;;;5017759;28;20514;-83
2023/04/08 06:42:10;;;;;;;109.93;26.37;;;9.40;99.90;;;;;;5015787;28;20163;-84
2023/04/08 06:44:36;;;;;;;107.53;28.47;;;9.40;99.90;;;;;;5015959;28;20586;-83
2023/04/08 06:47:02;;;;;;;111.73;28.93;;;9.40;99.90;;;;;;5015973;28;20177;-83
2023/04/08 06:49:29;;;;;;;111.10;26.97;;;9.40;99.90;;;;;;5017380;28;20162;-83
2023/04/08 06:51:54;;;;;;;106.00;25.85;;;9.40;99.90;;;;;;5017630;28;20454;-83
2023/04/08 06:54:20;;;;;;;113.33;26.37;;;9.40;99.90;;;;;;5017566;28;20174;-83
2023/04/08 06:56:48;;;;;;;108.37;25.10;;;9.40;99.90;;;;;;5017304;28;20197;-83
2023/04/08 06:59:14;;;;;;;106.07;23.30;;;9.40;99.90;;;;;;5015805;28;20165;-83
2023/04/08 07:01:40;;;;;;;109.13;25.07;;;9.30;99.90;;;;;;5016549;28;20246;-83
2023/04/08 07:04:06;;;;;;;110.78;24.55;;;9.30;99.90;;;;;;5016710;28;20182;-83
2023/04/08 07:06:32;;;;;;;113.30;26.03;;;9.40;99.90;;;;;;5016547;28;20304;-83
2023/04/08 07:08:57;;;;;;;111.33;28.03;;;9.40;99.90;;;;;;5017631;28;20162;-83
2023/04/08 07:11:23;;;;;;;107.80;27.23;;;9.40;99.90;;;;;;5015351;28;20276;-83
2023/04/08 07:13:49;;;;;;;110.60;26.43;;;9.50;99.90;;;;;;5015921;28;20669;-83
2023/04/08 07:16:15;;;;;;;108.53;26.48;;;9.50;99.90;;;;;;5015438;28;20997;-83
2023/04/08 07:18:41;;;;;;;105.53;24.90;;;9.50;99.90;;;;;;5014701;28;20219;-83
2023/04/08 07:21:07;;;;;;;114.82;26.77;;;9.50;99.90;;;;;;5015171;28;20174;-83
2023/04/08 07:23:33;;;;;;;114.30;27.03;;;9.60;99.90;;;;;;5015673;28;20200;-83
2023/04/08 07:26:03;;;;;;;110.97;28.60;;;9.70;99.90;;;;;;5016430;28;20403;-83
2023/04/08 07:28:29;;;;;;;109.38;28.90;;;9.80;99.90;;;;;;5015504;28;20174;-83
2023/04/08 07:30:56;;;;;;;115.20;30.57;;;10.00;99.90;;;;;;5016035;28;20193;-83
2023/04/08 07:33:22;;;;;;;111.25;30.52;;;10.10;99.90;;;;;;5016186;28;20503;-83
2023/04/08 07:35:48;;;;;;;110.53;28.52;;;10.20;99.90;;;;;;5015040;28;20166;-83
2023/04/08 07:38:14;;;;;;;110.70;30.03;;;10.10;99.90;;;;;;5015008;28;20253;-84
2023/04/08 07:40:40;;;;;;;110.00;28.90;;;10.10;99.90;;;;;;5016255;28;20168;-84
2023/04/08 07:43:07;;;;;;;113.80;32.33;;;10.10;99.90;;;;;;5015574;28;20554;-83
2023/04/08 07:45:33;;;;;;;110.70;29.30;;;10.20;99.90;;;;;;5016862;28;20169;-84
2023/04/08 07:47:59;;;;;;;107.83;28.53;;;10.30;99.90;;;;;;5015019;28;20170;-83
2023/04/08 07:50:25;;;;;;;110.17;30.77;;;10.30;99.90;;;;;;5016492;28;20197;-83
2023/04/08 07:52:52;;;;;;;113.67;31.40;;;10.40;99.90;;;;;;5016787;28;20188;-83
2023/04/08 07:55:17;;;;;;;115.18;31.33;;;10.50;99.90;;;;;;5017296;28;20154;-83
2023/04/08 07:57:43;;;;;;;108.80;29.00;;;10.60;99.90;;;;;;5016978;28;20581;-83
2023/04/08 08:00:09;;;;;;;110.20;27.73;;;10.70;99.90;;;;;;5016579;28;20170;-83
2023/04/08 08:02:35;;;;;;;109.63;29.48;;;10.60;99.90;;;;;;5015423;28;20205;-83
2023/04/08 08:05:02;;;;;;;107.97;29.27;;;10.60;99.90;;;;;;5014455;28;20169;-83
2023/04/08 08:07:28;;;;;;;112.40;29.48;;;10.80;99.90;;;;;;5014476;28;20994;-83
2023/04/08 08:09:53;;;;;;;107.30;31.17;;;10.80;99.90;;;;;;5014446;28;20178;-84
2023/04/08 08:12:19;;;;;;;111.30;30.50;;;11.00;99.90;;;;;;5016180;28;20456;-83
2023/04/08 08:14:45;;;;;;;104.90;28.77;;;11.00;99.90;;;;;;5014243;28;20267;-83
2023/04/08 08:17:11;;;;;;;105.27;25.80;;;11.00;99.90;;;;;;5015577;28;20492;-83
2023/04/08 08:19:37;;;;;;;110.35;31.17;;;10.90;99.90;;;;;;5014470;28;20257;-84
2023/04/08 08:22:02;;;;;;;104.87;27.07;;;10.80;99.90;;;;;;5014648;28;20220;-83
2023/04/08 08:24:28;;;;;;;102.87;27.47;;;10.70;99.90;;;;;;5016103;28;20185;-83
2023/04/08 08:26:54;;;;;;;105.87;26.53;;;10.70;99.90;;;;;;5013938;28;20162;-83
2023/04/08 08:29:20;;;;;;;108.40;27.00;;;10.90;99.90;;;;;;5015929;28;20182;-84
2023/04/08 08:31:47;;;;;;;108.33;28.10;;;11.00;99.90;;;;;;5019937;28;20455;-83
2023/04/08 08:34:13;;;;;;;109.72;28.38;;;11.10;99.90;;;;;;5019004;28;20588;-83
2023/04/08 08:36:38;;;;;;;112.20;30.50;;;11.20;99.90;;;;;;5020041;28;20161;-83
2023/04/08 08:39:04;;;;;;;106.07;27.53;;;11.20;99.90;;;;;;5019505;28;20405;-83
2023/04/08 08:41:35;;;;;;;103.50;28.37;;;11.20;99.90;;;;;;5018364;28;20170;-83
2023/04/08 08:44:02;;;;;;;105.45;27.77;;;11.30;99.90;;;;;;5018293;28;20225;-83
2023/04/08 08:46:28;;;;;;;104.88;27.45;;;11.40;99.90;;;;;;5018384;28;20205;-84
2023/04/08 08:48:54;;;;;;;101.80;26.50;;;11.40;99.90;;;;;;5020189;28;20170;-83
2023/04/08 08:51:20;;;;;;;100.60;25.80;;;11.40;99.90;;;;;;5019120;28;20497;-84
2023/04/08 08:53:46;;;;;;;103.10;26.05;;;11.40;99.90;;;;;;5019113;28;20420;-84
2023/04/08 08:56:11;;;;;;;104.23;28.30;;;11.40;99.90;;;;;;5019526;28;20652;-84
2023/04/08 08:58:38;;;;;;;105.20;25.20;;;11.40;99.90;;;;;;5019468;28;20225;-83
2023/04/08 09:01:31;;;;;;;104.43;27.30;;;11.40;99.90;;;;;;5019739;28;20506;-84
2023/04/08 09:04:09;;;;;;;108.60;25.83;;;11.50;99.90;;;;;;5018958;28;20190;-83
2023/04/08 09:06:38;;;;;;;107.72;27.45;;;11.50;99.90;;;;;;5018220;28;20208;-83
2023/04/08 09:09:09;;;;;;;98.20;25.70;;;11.60;99.90;;;;;;5019827;28;20193;-84
2023/04/08 09:11:36;;;;;;;107.38;26.75;;;11.70;99.90;;;;;;5019265;28;20178;-83
2023/04/08 09:14:02;;;;;;;95.55;24.25;;;11.80;99.90;;;;;;5019503;28;20628;-84
2023/04/08 09:16:29;;;;;;;102.60;25.90;;;11.70;99.90;;;;;;5017750;28;20165;-84
2023/04/08 09:19:08;;;;;;;100.75;23.17;;;11.80;99.90;;;;;;5019433;28;20166;-83
2023/04/08 09:21:34;;;;;;;103.20;24.73;;;11.90;99.90;;;;;;5018070;28;20165;-84
2023/04/08 09:24:00;;;;;;;97.75;24.55;;;11.80;99.90;;;;;;5018841;28;20190;-83
2023/04/08 09:26:26;;;;;;;100.97;25.77;;;11.80;99.90;;;;;;5018703;28;20252;-84
2023/04/08 09:29:06;;;;;;;101.45;24.80;;;11.90;99.90;;;;;;5019407;28;20412;-84
2023/04/08 09:31:40;;;;;;;103.07;26.40;;;12.00;99.90;;;;;;5018600;28;20221;-83
2023/04/08 09:34:11;;;;;;;106.28;27.55;;;11.90;99.90;;;;;;5017726;28;20277;-84
2023/04/08 09:36:37;;;;;;;102.50;25.95;;;11.90;99.90;;;;;;5017955;28;20161;-83
2023/04/08 09:39:03;;;;;;;105.17;26.07;;;11.90;99.90;;;;;;5017732;28;20175;-84
2023/04/08 09:41:36;;;;;;;104.40;25.67;;;11.90;99.90;;;;;;5017519;28;20526;-83
2023/04/08 09:44:07;;;;;;;104.28;27.83;;;12.00;99.90;;;;;;5018279;28;20425;-84
2023/04/08 09:46:45;;;;;;;106.07;28.17;;;12.20;99.90;;;;;;5018545;28;20170;-84
2023/04/08 09:49:32;;;;;;;115.70;31.95;;;12.10;99.90;;;;;;5018821;28;20149;-83
2023/04/08 09:52:08;;;;;;;114.47;32.65;;;12.10;99.90;;;;;;5018186;28;20182;-83
2023/04/08 09:54:42;;;;;;;119.35;34.03;;;12.00;99.90;;;;;;5017653;28;20191;-83
2023/04/08 09:57:15;;;;;;;116.70;33.83;;;11.90;99.90;;;;;;5018677;28;20146;-84
2023/04/08 09:59:48;;;;;;;121.93;35.15;;;12.00;99.90;;;;;;5017228;28;20526;-83
2023/04/08 10:02:19;;;;;;;119.40;32.72;;;12.10;99.90;;;;;;5018561;28;20144;-83
2023/04/08 10:04:49;;;;;;;131.40;36.55;;;12.20;99.90;;;;;;5018904;28;20201;-84
2023/04/08 10:07:15;;;;;;;130.32;35.60;;;12.30;99.90;;;;;;5017322;28;20189;-84
2023/04/08 10:09:42;;;;;;;124.87;33.83;;;12.40;99.90;;;;;;5018664;28;20622;-84
2023/04/08 10:12:08;;;;;;;136.10;37.42;;;12.60;99.90;;;;;;5018319;28;20162;-84
2023/04/08 10:14:34;;;;;;;137.95;38.40;;;12.70;99.90;;;;;;5018673;28;20241;-84
2023/04/08 10:17:26;;;;;;;132.07;35.77;;;12.60;99.90;;;;;;5019386;28;20597;-83
2023/04/08 10:19:52;;;;;;;120.55;30.67;;;12.60;99.90;;;;;;5020262;28;20444;-83
2023/04/08 10:22:33;;;;;;;121.50;33.08;;;12.70;99.90;;;;;;5018699;28;20641;-84
2023/04/08 10:25:24;;;;;;;122.68;35.50;;;12.70;99.90;;;;;;5017741;28;20193;-84
2023/04/08 10:27:50;;;;;;;126.50;32.17;;;12.70;99.90;;;;;;5012455;28;20176;-84
2023/04/08 10:30:30;;;;;;;122.80;33.60;;;12.80;99.90;;;;;;5021531;28;20276;-83
2023/04/08 10:32:59;;;;;;;116.53;33.42;;;12.70;91.30;;;;;;5017883;28;20188;-84
2023/04/08 10:35:36;;;;;;;114.90;31.80;;;12.60;87.60;;;;;;5017113;28;20169;-84
2023/04/08 10:38:08;;;;;;;122.53;34.45;;;12.80;76.10;;;;;;5019090;28;20645;-84
2023/04/08 10:40:38;;;;;;;124.70;34.83;;;12.90;61.30;;;;;;5018132;28;20517;-84
2023/04/08 10:43:06;;;;;;;121.82;30.98;;;13.00;61.30;;;;;;5016761;28;20441;-83
2023/04/08 10:45:33;;;;;;;115.10;32.47;;;12.90;47.40;;;;;;5016352;28;20193;-84
2023/04/08 10:48:13;;;;;;;115.95;32.60;;;12.90;62.50;;;;;;5017706;28;20166;-84
2023/04/08 10:50:39;;;;;;;112.40;32.33;;;12.80;50.90;;;;;;5016287;28;20608;-84
2023/04/08 10:53:06;;;;;;;108.57;29.33;;;12.90;57.10;;;;;;5015478;28;20213;-84
2023/04/08 10:55:33;;;;;;;113.43;31.83;;;13.00;54.60;;;;;;5017583;28;20164;-84
2023/04/08 10:58:08;;;;;;;111.05;33.95;;;12.90;62.00;;;;;;5016197;28;20177;-84
2023/04/08 11:00:43;;;;;;;107.00;29.15;;;12.90;47.80;;;;;;5017752;28;20169;-84
2023/04/08 11:03:10;;;;;;;109.90;29.85;;;12.90;51.30;;;;;;5017946;28;20446;-83
2023/04/08 11:05:37;;;;;;;105.28;30.05;;;12.90;47.40;;;;;;5017657;28;20178;-84
2023/04/08 11:08:04;;;;;;;115.82;31.48;;;12.90;50.20;;;;;;5016220;28;20193;-83
2023/04/08 11:10:35;;;;;;;102.97;29.55;;;13.10;50.00;;;;;;5016286;28;20247;-83
2023/04/08 11:13:08;;;;;;;106.03;27.60;;;13.10;46.40;;;;;;5017220;28;20295;-83
2023/04/08 11:15:35;;;;;;;103.47;29.35;;;13.20;42.60;;;;;;5017827;28;20677;-83
2023/04/08 11:18:05;;;;;;;96.45;26.17;;;13.20;42.90;;;;;;5016618;28;20626;-83
2023/04/08 11:20:34;;;;;;;96.10;27.00;;;13.20;45.00;;;;;;5015141;28;20166;-83
2023/04/08 11:23:00;;;;;;;95.32;25.10;;;13.10;39.10;;;;;;5017058;28;20337;-83
2023/04/08 11:25:29;;;;;;;92.00;24.33;;;13.30;42.60;;;;;;5015311;28;20658;-83
2023/04/08 11:27:55;;;;;;;94.63;24.73;;;13.30;40.50;;;;;;5017491;28;20409;-83
2023/04/08 11:30:22;;;;;;;90.13;23.15;;;13.20;34.40;;;;;;5015846;28;20280;-83
2023/04/08 11:32:48;;;;;;;90.07;23.10;;;13.10;45.50;;;;;;5016741;28;20189;-83
2023/04/08 11:35:16;;;;;;;92.03;22.63;;;13.20;49.40;;;;;;5016830;28;20154;-83
2023/04/08 11:37:41;;;;;;;91.82;25.00;;;13.30;46.20;;;;;;5015530;28;20180;-83
2023/04/08 11:40:11;;;;;;;93.73;24.73;;;13.30;42.80;;;;;;5016770;28;20154;-83
2023/04/08 11:42:38;;;;;;;90.53;23.52;;;13.30;39.80;;;;;;5016290;28;20645;-83
2023/04/08 11:45:15;;;;;;;91.05;22.77;;;13.30;41.20;;;;;;5016957;28;20176;-83
2023/04/08 11:47:41;;;;;;;91.40;24.35;;;13.30;39.40;;;;;;5016591;28;20681;-83
2023/04/08 11:50:08;;;;;;;89.18;22.85;;;13.30;45.40;;;;;;5015431;28;20243;-83
2023/04/08 11:52:40;;;;;;;93.53;24.83;;;13.30;47.50;;;;;;5016730;28;20221;-83
2023/04/08 11:55:09;;;;;;;91.43;24.50;;;13.40;31.00;;;;;;5015681;28;20181;-83
2023/04/08 11:57:35;;;;;;;91.15;25.42;;;13.40;26.60;;;;;;5015711;28;20424;-83
2023/04/08 12:00:00;;;;;;;96.43;24.93;;;13.40;31.40;;;;;;5016079;28;20162;-83
2023/04/08 12:02:26;;;;;;;96.47;26.10;;;13.30;29.70;;;;;;5015144;28;20173;-83
2023/04/08 12:04:52;;;;;;;99.97;26.57;;;13.30;25.50;;;;;;5015499;28;20181;-83
2023/04/08 12:07:18;;;;;;;92.77;23.80;;;13.20;31.80;;;;;;5096478;23;20691;-83
2023/04/08 12:09:43;;;;;;;96.73;25.20;;;13.20;34.70;;;;;;5038161;28;20240;-81
2023/04/08 12:12:09;;;;;;;101.63;28.33;;;13.10;32.70;;;;;;5037308;28;20181;-82
2023/04/08 12:14:35;;;;;;;93.93;25.70;;;12.90;38.40;;;;;;5038445;28;20639;-81
2023/04/08 12:17:00;;;;;;;99.67;27.17;;;12.80;39.30;;;;;;5038728;28;20173;-82
2023/04/08 12:19:26;;;;;;;97.77;26.03;;;12.70;43.30;;;;;;5037888;28;20192;-82
2023/04/08 12:21:52;;;;;;;102.30;27.53;;;12.60;50.00;;;;;;5035253;28;20708;-81
2023/04/08 12:24:17;;;;;;;100.60;26.10;;;12.50;44.90;;;;;;5036862;28;20200;-82
2023/04/08 12:26:43;;;;;;;109.93;26.83;;;12.40;38.00;;;;;;5038560;28;20234;-82
2023/04/08 12:29:10;;;;;;;105.67;27.37;;;12.50;29.90;;;;;;5037725;28;20177;-82
2023/04/08 12:31:36;;;;;;;103.85;25.45;;;12.40;30.80;;;;;;5038678;28;20193;-82
2023/04/08 12:34:02;;;;;;;108.53;26.20;;;12.40;30.70;;;;;;5036758;28;20714;-84
2023/04/08 12:36:27;;;;;;;104.40;26.47;;;12.50;34.50;;;;;;5037120;28;20415;-84
2023/04/08 12:38:53;;;;;;;107.87;26.07;;;12.40;28.20;;;;;;5038740;28;20172;-85